createdAt,value
2022-09-28T00:02:12.120Z,8.10
2022-09-28T00:04:40.478Z,8.10
2022-09-28T00:07:08.870Z,8.10
2022-09-28T00:09:37.213Z,8.10
2022-09-28T00:12:06.777Z,8.10
2022-09-28T00:14:35.139Z,8.10
2022-09-28T00:17:04.879Z,8.10
2022-09-28T00:19:34.048Z,8.10
2022-09-28T00:22:02.390Z,8.00
2022-09-28T00:24:30.872Z,8.00
2022-09-28T00:27:01.693Z,8.00
2022-09-28T00:29:32.363Z,8.00
2022-09-28T00:32:02.649Z,8.00
2022-09-28T00:34:34.781Z,8.00
2022-09-28T00:37:05.593Z,8.00
2022-09-28T00:39:35.777Z,8.00
2022-09-28T00:42:05.856Z,8.00
2022-09-28T00:44:41.324Z,8.00
2022-09-28T00:47:31.334Z,8.00
2022-09-28T00:50:04.301Z,8.00
2022-09-28T00:52:37.119Z,7.90
2022-09-28T00:55:07.982Z,7.90
2022-09-28T00:57:37.609Z,7.90
2022-09-28T01:00:07.162Z,7.90
2022-09-28T01:02:35.908Z,7.90
2022-09-28T01:05:08.487Z,7.80
2022-09-28T01:07:37.743Z,7.80
2022-09-28T01:10:07.407Z,7.80
2022-09-28T01:12:35.679Z,7.80
2022-09-28T01:15:05.649Z,7.80
2022-09-28T01:17:45.359Z,7.80
2022-09-28T01:20:35.202Z,7.80
2022-09-28T01:23:30.175Z,7.80
2022-09-28T01:26:23.097Z,7.80
2022-09-28T01:29:00.768Z,7.80
2022-09-28T01:31:37.213Z,7.80
2022-09-28T01:34:12.667Z,7.80
2022-09-28T01:36:48.349Z,7.80
2022-09-28T01:39:19.540Z,7.90
2022-09-28T01:41:51.469Z,7.90
2022-09-28T01:44:23.657Z,7.90
2022-09-28T01:46:53.649Z,7.90
2022-09-28T01:49:31.007Z,7.90
2022-09-28T01:52:03.732Z,7.90
2022-09-28T01:54:38.747Z,7.90
2022-09-28T01:57:10.782Z,7.90
2022-09-28T01:59:44.617Z,7.90
2022-09-28T02:02:18.833Z,7.90
2022-09-28T02:04:51.288Z,7.90
2022-09-28T02:07:25.332Z,7.90
2022-09-28T02:09:57.938Z,7.90
2022-09-28T02:12:32.388Z,7.90
2022-09-28T02:15:11.619Z,7.80
2022-09-28T02:17:40.701Z,7.80
2022-09-28T02:20:10.079Z,7.80
2022-09-28T02:22:43.910Z,7.80
2022-09-28T02:25:15.565Z,7.80
2022-09-28T02:27:51.708Z,7.80
2022-09-28T02:30:21.641Z,7.80
2022-09-28T02:32:53.796Z,7.80
2022-09-28T02:35:23.291Z,7.80
2022-09-28T02:37:52.165Z,7.80
2022-09-28T02:40:23.307Z,7.80
2022-09-28T02:43:01.141Z,7.80
2022-09-28T02:45:46.027Z,7.80
2022-09-28T02:48:42.626Z,7.70
2022-09-28T02:51:22.000Z,7.80
2022-09-28T02:54:18.926Z,7.70
2022-09-28T02:57:00.659Z,7.70
2022-09-28T02:59:47.063Z,7.70
2022-09-28T03:02:32.946Z,7.70
2022-09-28T03:05:11.080Z,7.70
2022-09-28T03:07:42.980Z,7.70
2022-09-28T03:10:17.809Z,7.70
2022-09-28T03:12:49.280Z,7.70
2022-09-28T03:15:23.882Z,7.70
2022-09-28T03:17:54.188Z,7.70
2022-09-28T03:20:22.569Z,7.70
2022-09-28T03:23:12.416Z,7.70
2022-09-28T03:25:39.541Z,7.70
2022-09-28T03:28:07.910Z,7.70
2022-09-28T03:30:36.288Z,7.70
2022-09-28T03:33:07.131Z,7.80
2022-09-28T03:35:35.545Z,7.80
2022-09-28T03:38:04.002Z,7.80
2022-09-28T03:40:32.389Z,7.80
2022-09-28T03:43:01.791Z,7.70
2022-09-28T03:45:30.538Z,7.70
2022-09-28T03:47:59.678Z,7.70
2022-09-28T03:50:55.507Z,7.70
2022-09-28T03:53:24.559Z,7.70
2022-09-28T03:55:54.510Z,7.70
2022-09-28T03:58:23.268Z,7.70
2022-09-28T04:00:51.960Z,7.70
2022-09-28T04:03:20.497Z,7.70
2022-09-28T04:05:54.488Z,7.70
2022-09-28T04:08:22.853Z,7.70
2022-09-28T04:10:51.492Z,7.70
2022-09-28T04:13:19.994Z,7.70
2022-09-28T04:15:54.562Z,7.70
2022-09-28T04:18:23.411Z,7.70
2022-09-28T04:21:03.622Z,7.70
2022-09-28T04:23:32.392Z,7.70
2022-09-28T04:26:00.878Z,7.70
2022-09-28T04:28:46.900Z,7.70
2022-09-28T04:31:18.260Z,7.70
2022-09-28T04:33:46.878Z,7.70
2022-09-28T04:36:17.747Z,7.70
2022-09-28T04:38:53.071Z,7.70
2022-09-28T04:41:22.964Z,7.60
2022-09-28T04:43:51.755Z,7.60
2022-09-28T04:46:20.720Z,7.60
2022-09-28T04:48:49.190Z,7.50
2022-09-28T04:51:18.762Z,7.50
2022-09-28T04:53:47.318Z,7.50
2022-09-28T04:56:17.542Z,7.50
2022-09-28T04:58:51.781Z,7.50
2022-09-28T05:01:23.862Z,7.50
2022-09-28T05:03:52.463Z,7.50
2022-09-28T05:06:23.045Z,7.50
2022-09-28T05:08:51.459Z,7.50
2022-09-28T05:11:21.426Z,7.40
2022-09-28T05:13:52.460Z,7.40
2022-09-28T05:16:21.271Z,7.40
2022-09-28T05:18:50.151Z,7.40
2022-09-28T05:21:20.301Z,7.40
2022-09-28T05:23:50.518Z,7.40
2022-09-28T05:26:19.381Z,7.30
2022-09-28T05:28:47.789Z,7.30
2022-09-28T05:31:16.496Z,7.30
2022-09-28T05:33:45.065Z,7.30
2022-09-28T05:36:13.589Z,7.30
2022-09-28T05:38:41.988Z,7.20
2022-09-28T05:41:11.970Z,7.20
2022-09-28T05:43:40.478Z,7.20
2022-09-28T05:46:09.295Z,7.20
2022-09-28T05:48:37.874Z,7.30
2022-09-28T05:51:06.779Z,7.30
2022-09-28T05:53:35.298Z,7.30
2022-09-28T05:56:03.792Z,7.40
2022-09-28T05:58:33.639Z,7.30
2022-09-28T06:01:01.998Z,7.40
2022-09-28T06:03:30.499Z,7.40
2022-09-28T06:06:01.334Z,7.40
2022-09-28T06:08:31.940Z,7.50
2022-09-28T06:11:02.176Z,7.50
2022-09-28T06:13:30.578Z,7.50
2022-09-28T06:16:00.219Z,7.60
2022-09-28T06:18:28.691Z,7.60
2022-09-28T06:20:57.127Z,7.60
2022-09-28T06:23:25.457Z,7.60
2022-09-28T06:25:53.749Z,7.70
2022-09-28T06:28:22.079Z,7.70
2022-09-28T06:30:50.484Z,7.80
2022-09-28T06:33:20.655Z,7.80
2022-09-28T06:35:49.156Z,7.80
2022-09-28T06:38:17.681Z,7.90
2022-09-28T06:40:46.499Z,7.90
2022-09-28T06:43:16.318Z,8.00
2022-09-28T06:45:45.279Z,8.00
2022-09-28T06:48:13.933Z,8.00
2022-09-28T06:50:44.261Z,8.10
2022-09-28T06:53:14.831Z,8.10
2022-09-28T06:55:46.163Z,8.10
2022-09-28T06:58:17.352Z,8.10
2022-09-28T07:00:46.033Z,8.10
2022-09-28T07:03:16.172Z,8.20
2022-09-28T07:05:47.911Z,8.20
2022-09-28T07:08:17.011Z,8.20
2022-09-28T07:10:46.844Z,8.20
2022-09-28T07:13:40.566Z,8.20
2022-09-28T07:16:04.888Z,8.30
2022-09-28T07:18:33.481Z,8.40
2022-09-28T07:21:04.457Z,8.50
2022-09-28T07:23:35.802Z,8.60
2022-09-28T07:26:09.224Z,8.60
2022-09-28T07:28:41.610Z,8.70
2022-09-28T07:31:11.089Z,8.70
2022-09-28T07:33:39.708Z,8.80
2022-09-28T07:36:13.013Z,8.80
2022-09-28T07:38:41.566Z,8.80
2022-09-28T07:41:12.207Z,8.90
2022-09-28T07:43:40.888Z,8.90
2022-09-28T07:46:12.184Z,9.00
2022-09-28T07:48:42.498Z,9.10
2022-09-28T07:51:12.869Z,9.00
2022-09-28T07:53:41.599Z,9.00
2022-09-28T07:56:11.940Z,9.00
2022-09-28T07:58:41.169Z,9.00
2022-09-28T08:01:11.820Z,9.00
2022-09-28T08:03:40.760Z,9.00
2022-09-28T08:06:12.674Z,9.00
2022-09-28T08:08:44.973Z,9.00
2022-09-28T08:11:14.904Z,9.00
2022-09-28T08:13:44.109Z,9.10
2022-09-28T08:16:13.757Z,9.10
2022-09-28T08:18:42.379Z,9.00
2022-09-28T08:21:29.697Z,9.10
2022-09-28T08:23:59.538Z,9.10
2022-09-28T08:26:29.099Z,9.10
2022-09-28T08:28:57.608Z,9.10
2022-09-28T08:31:26.153Z,9.20
2022-09-28T08:33:54.799Z,9.20
2022-09-28T08:36:24.076Z,9.20
2022-09-28T08:38:52.678Z,9.20
2022-09-28T08:41:33.238Z,9.20
2022-09-28T08:44:24.185Z,9.30
2022-09-28T08:46:58.115Z,9.40
2022-09-28T08:49:30.501Z,9.40
2022-09-28T08:52:02.390Z,9.40
2022-09-28T08:54:39.909Z,9.50
2022-09-28T08:57:15.438Z,9.50
2022-09-28T08:59:49.590Z,9.50
2022-09-28T09:02:23.183Z,9.60
2022-09-28T09:04:53.053Z,9.50
2022-09-28T09:07:47.091Z,9.50
2022-09-28T09:10:39.952Z,9.60
2022-09-28T09:13:37.624Z,9.60
2022-09-28T09:16:19.646Z,9.70
2022-09-28T09:18:55.627Z,9.80
2022-09-28T09:21:40.701Z,9.90
2022-09-28T09:24:24.939Z,9.90
2022-09-28T09:27:02.668Z,10.00
2022-09-28T09:29:52.880Z,10.10
2022-09-28T09:32:45.566Z,10.10
2022-09-28T09:35:37.878Z,10.40
2022-09-28T09:38:19.343Z,10.50
2022-09-28T09:41:07.546Z,10.60
2022-09-28T09:44:00.070Z,10.80
2022-09-28T09:46:39.337Z,11.10
2022-09-28T09:49:14.258Z,11.20
2022-09-28T09:51:51.620Z,11.30
2022-09-28T09:54:25.577Z,11.30
2022-09-28T09:56:58.477Z,11.00
2022-09-28T09:59:33.704Z,11.10
2022-09-28T10:02:12.567Z,11.20
2022-09-28T10:04:47.022Z,11.40
2022-09-28T10:07:23.464Z,11.50
2022-09-28T10:09:56.939Z,11.50
2022-09-28T10:12:26.445Z,11.30
2022-09-28T10:14:56.259Z,11.30
2022-09-28T10:17:27.859Z,11.30
2022-09-28T10:19:57.318Z,11.40
2022-09-28T10:22:28.688Z,11.40
2022-09-28T10:25:18.076Z,11.30
2022-09-28T10:27:52.519Z,11.30
2022-09-28T10:30:23.507Z,11.30
2022-09-28T10:32:59.105Z,11.30
2022-09-28T10:35:29.285Z,11.30
2022-09-28T10:38:01.802Z,11.20
2022-09-28T10:40:44.531Z,11.20
2022-09-28T10:43:23.804Z,11.30
2022-09-28T10:46:02.979Z,11.50
2022-09-28T10:48:48.487Z,11.70
2022-09-28T10:51:18.288Z,11.90
2022-09-28T10:54:01.563Z,12.00
2022-09-28T10:56:36.480Z,12.10
2022-09-28T10:59:25.258Z,12.10
2022-09-28T11:02:00.298Z,12.10
2022-09-28T11:04:34.909Z,12.10
2022-09-28T11:07:03.680Z,12.00
2022-09-28T11:09:35.876Z,12.00
2022-09-28T11:12:14.834Z,11.90
2022-09-28T11:14:52.710Z,12.00
2022-09-28T11:17:29.006Z,12.00
2022-09-28T11:20:36.098Z,12.00
2022-09-28T11:23:24.145Z,11.90
2022-09-28T11:26:18.338Z,11.90
2022-09-28T11:29:01.083Z,11.90
2022-09-28T11:31:40.027Z,11.80
2022-09-28T11:34:57.604Z,11.70
2022-09-28T11:38:03.518Z,11.60
2022-09-28T11:40:47.590Z,11.50
2022-09-28T11:43:28.300Z,11.50
2022-09-28T11:46:03.960Z,11.40
2022-09-28T11:48:45.637Z,11.40
2022-09-28T11:51:20.120Z,11.50
2022-09-28T11:53:54.093Z,11.50
2022-09-28T11:56:35.187Z,11.50
2022-09-28T11:59:11.077Z,11.40
2022-09-28T12:01:45.098Z,11.40
2022-09-28T12:04:17.773Z,11.40
2022-09-28T12:06:52.522Z,11.40
2022-09-28T12:09:56.874Z,11.30
2022-09-28T12:12:55.561Z,11.30
2022-09-28T12:16:22.990Z,11.20
2022-09-28T12:19:07.245Z,11.20
2022-09-28T12:21:55.553Z,11.10
2022-09-28T12:24:36.911Z,11.00
2022-09-28T12:27:27.446Z,10.90
2022-09-28T12:33:18.165Z,10.90
2022-09-28T12:36:24.924Z,10.90
2022-09-28T12:39:40.634Z,10.80
2022-09-28T12:42:33.686Z,10.60
2022-09-28T12:46:10.389Z,10.30
2022-09-28T12:50:27.279Z,10.20
2022-09-28T12:53:06.366Z,10.20
2022-09-28T12:56:01.833Z,10.20
2022-09-28T12:58:51.670Z,10.20
2022-09-28T13:01:36.276Z,10.20
2022-09-28T13:04:24.098Z,10.20
2022-09-28T13:07:00.589Z,10.20
2022-09-28T13:09:32.331Z,10.20
2022-09-28T13:12:19.606Z,10.30
2022-09-28T13:15:29.539Z,10.50
2022-09-28T13:18:05.196Z,10.70
2022-09-28T13:21:11.032Z,10.90
2022-09-28T13:23:43.083Z,11.10
2022-09-28T13:26:20.681Z,11.20
2022-09-28T13:28:51.862Z,11.50
2022-09-28T13:31:26.675Z,11.70
2022-09-28T13:33:59.117Z,11.80
2022-09-28T13:36:47.816Z,11.90
2022-09-28T13:39:40.600Z,12.20
2022-09-28T13:42:10.845Z,12.50
2022-09-28T13:44:59.590Z,13.40
2022-09-28T13:47:53.986Z,14.40
2022-09-28T13:50:34.654Z,15.70
2022-09-28T13:53:16.757Z,17.10
2022-09-28T13:55:57.397Z,17.80
2022-09-28T13:58:31.587Z,18.40
2022-09-28T14:01:06.392Z,18.70
2022-09-28T14:03:55.137Z,18.10
2022-09-28T14:06:26.307Z,17.70
2022-09-28T14:09:42.713Z,16.60
2022-09-28T14:12:45.954Z,15.60
2022-09-28T14:15:41.055Z,15.00
2022-09-28T14:18:19.218Z,14.70
2022-09-28T14:20:59.687Z,14.40
2022-09-28T14:23:58.934Z,14.30
2022-09-28T14:26:59.229Z,14.40
2022-09-28T14:29:29.825Z,14.90
2022-09-28T14:32:00.280Z,14.90
2022-09-28T14:34:35.621Z,14.80
2022-09-28T14:37:24.058Z,14.70
2022-09-28T14:40:10.362Z,14.60
2022-09-28T14:42:39.005Z,14.60
2022-09-28T14:45:34.867Z,14.60
2022-09-28T14:48:15.756Z,14.90
2022-09-28T14:50:47.416Z,15.00
2022-09-28T14:53:25.091Z,14.80
2022-09-28T14:55:58.743Z,14.70
2022-09-28T14:58:29.966Z,14.60
2022-09-28T15:01:05.521Z,14.70
2022-09-28T15:03:36.373Z,15.20
2022-09-28T15:06:06.654Z,16.20
2022-09-28T15:08:39.669Z,16.70
2022-09-28T15:11:13.615Z,16.60
2022-09-28T15:13:43.056Z,16.20
2022-09-28T15:16:14.252Z,16.10
2022-09-28T15:19:15.798Z,15.90
2022-09-28T15:21:47.755Z,15.60
2022-09-28T15:24:27.248Z,15.30
2022-09-28T15:26:56.762Z,15.10
2022-09-28T15:29:27.815Z,14.90
2022-09-28T15:31:56.239Z,14.80
2022-09-28T15:34:50.089Z,14.60
2022-09-28T15:37:22.869Z,14.40
2022-09-28T15:39:52.699Z,14.20
2022-09-28T15:42:22.893Z,14.20
2022-09-28T15:45:06.185Z,14.30
2022-09-28T15:47:35.292Z,14.30
2022-09-28T15:50:06.079Z,14.60
2022-09-28T15:52:40.799Z,15.00
2022-09-28T15:55:22.298Z,15.40
2022-09-28T15:57:51.536Z,16.10
2022-09-28T16:00:28.872Z,16.70
2022-09-28T16:03:02.478Z,17.00
2022-09-28T16:05:40.585Z,17.30
2022-09-28T16:08:21.496Z,17.30
2022-09-28T16:10:59.414Z,17.30
2022-09-28T16:13:28.548Z,17.50
2022-09-28T16:16:00.294Z,17.70
2022-09-28T16:18:30.995Z,17.50
2022-09-28T16:21:24.511Z,17.20
2022-09-28T16:23:57.905Z,16.70
2022-09-28T16:26:35.384Z,16.30
2022-09-28T16:29:09.610Z,16.00
2022-09-28T16:31:41.744Z,15.70
2022-09-28T16:34:20.083Z,15.30
2022-09-28T16:36:50.116Z,15.00
2022-09-28T16:39:20.716Z,14.70
2022-09-28T16:41:53.843Z,14.30
2022-09-28T16:44:28.505Z,13.80
2022-09-28T16:47:16.576Z,13.30
2022-09-28T16:49:45.140Z,12.80
2022-09-28T16:52:34.671Z,12.50
2022-09-28T16:55:38.979Z,12.20
2022-09-28T16:58:04.868Z,11.90
2022-09-28T17:00:33.627Z,11.70
2022-09-28T17:03:02.645Z,11.50
2022-09-28T17:05:31.296Z,11.20
2022-09-28T17:08:03.209Z,11.00
2022-09-28T17:10:50.015Z,10.80
2022-09-28T17:13:31.471Z,10.60
2022-09-28T17:16:00.481Z,10.50
2022-09-28T17:18:31.913Z,10.30
2022-09-28T17:21:04.071Z,10.20
2022-09-28T17:23:35.508Z,10.00
2022-09-28T17:26:06.624Z,9.80
2022-09-28T17:28:36.969Z,9.80
2022-09-28T17:31:06.024Z,9.70
2022-09-28T17:33:35.565Z,9.60
2022-09-28T17:36:05.084Z,9.50
2022-09-28T17:38:34.687Z,9.40
2022-09-28T17:41:04.896Z,9.40
2022-09-28T17:43:33.378Z,9.30
2022-09-28T17:46:03.843Z,9.30
2022-09-28T17:48:33.957Z,9.20
2022-09-28T17:51:02.839Z,9.10
2022-09-28T17:53:31.908Z,9.10
2022-09-28T17:56:00.603Z,9.00
2022-09-28T17:58:30.401Z,8.90
2022-09-28T18:00:59.019Z,8.80
2022-09-28T18:03:28.039Z,8.80
2022-09-28T18:06:03.650Z,8.70
2022-09-28T18:08:32.069Z,8.60
2022-09-28T18:11:01.681Z,8.60
2022-09-28T18:13:32.073Z,8.50
2022-09-28T18:16:01.635Z,8.40
2022-09-28T18:18:31.068Z,8.40
2022-09-28T18:21:01.121Z,8.30
2022-09-28T18:23:30.124Z,8.20
2022-09-28T18:25:58.858Z,8.20
2022-09-28T18:28:27.907Z,8.10
2022-09-28T18:30:58.219Z,8.10
2022-09-28T18:36:09.713Z,8.00
2022-09-28T18:38:39.128Z,7.90
2022-09-28T18:41:10.733Z,7.80
2022-09-28T18:43:41.200Z,7.80
2022-09-28T18:46:13.374Z,7.70
2022-09-28T18:48:44.268Z,7.60
2022-09-28T18:51:15.565Z,7.60
2022-09-28T18:53:45.490Z,7.50
2022-09-28T18:56:18.386Z,7.50
2022-09-28T18:58:51.300Z,7.40
2022-09-28T19:01:29.976Z,7.30
2022-09-28T19:04:01.490Z,7.30
2022-09-28T19:06:31.907Z,7.30
2022-09-28T19:09:01.115Z,7.20
2022-09-28T19:11:30.331Z,7.10
2022-09-28T19:14:00.766Z,7.10
2022-09-28T19:16:34.148Z,7.00
2022-09-28T19:19:03.836Z,7.00
2022-09-28T19:21:33.776Z,6.90
2022-09-28T19:24:03.844Z,6.90
2022-09-28T19:26:33.479Z,6.80
2022-09-28T19:29:03.139Z,6.80
2022-09-28T19:31:34.190Z,6.70
2022-09-28T19:34:03.039Z,6.70
2022-09-28T19:36:32.120Z,6.60
2022-09-28T19:39:04.021Z,6.60
2022-09-28T19:41:44.702Z,6.60
2022-09-28T19:44:25.939Z,6.60
2022-09-28T19:47:00.425Z,6.60
2022-09-28T19:49:33.217Z,6.60
2022-09-28T19:52:12.587Z,6.60
2022-09-28T19:54:44.002Z,6.50
2022-09-28T19:57:14.603Z,6.50
2022-09-28T19:59:43.312Z,6.40
2022-09-28T20:02:13.491Z,6.40
2022-09-28T20:04:42.419Z,6.40
2022-09-28T20:07:11.550Z,6.30
2022-09-28T20:09:48.161Z,6.30
2022-09-28T20:12:18.995Z,6.30
2022-09-28T20:14:51.704Z,6.30
2022-09-28T20:17:27.697Z,6.30
2022-09-28T20:20:09.746Z,6.30
2022-09-28T20:22:45.295Z,6.30
2022-09-28T20:25:16.300Z,6.30
2022-09-28T20:27:54.359Z,6.20
2022-09-28T20:30:33.407Z,6.20
2022-09-28T20:33:06.934Z,6.10
2022-09-28T20:35:40.547Z,6.10
2022-09-28T20:38:28.123Z,6.10
2022-09-28T20:41:04.350Z,6.00
2022-09-28T20:43:38.167Z,6.00
2022-09-28T20:46:17.646Z,5.90
2022-09-28T20:48:59.800Z,5.90
2022-09-28T20:51:33.471Z,5.80
2022-09-28T20:54:19.287Z,5.80
2022-09-28T20:57:03.130Z,5.80
2022-09-28T20:59:35.119Z,5.70
2022-09-28T21:02:06.573Z,5.70
2022-09-28T21:04:43.191Z,5.70
2022-09-28T21:07:23.986Z,5.70
2022-09-28T21:10:00.157Z,5.60
2022-09-28T21:12:29.687Z,5.60
2022-09-28T21:15:06.204Z,5.60
2022-09-28T21:17:35.858Z,5.50
2022-09-28T21:20:16.616Z,5.50
2022-09-28T21:22:48.350Z,5.40
2022-09-28T21:25:19.811Z,5.40
2022-09-28T21:27:52.079Z,5.50
2022-09-28T21:30:32.893Z,5.50
2022-09-28T21:33:08.868Z,5.40
2022-09-28T21:35:49.962Z,5.40
2022-09-28T21:38:18.821Z,5.40
2022-09-28T21:40:56.873Z,5.40
2022-09-28T21:43:32.169Z,5.40
2022-09-28T21:46:06.243Z,5.40
2022-09-28T21:48:39.746Z,5.30
2022-09-28T21:51:16.050Z,5.30
2022-09-28T21:53:58.353Z,5.20
2022-09-28T21:56:37.311Z,5.10
2022-09-28T21:59:06.147Z,5.10
2022-09-28T22:01:44.481Z,5.00
2022-09-28T22:04:17.699Z,5.00
2022-09-28T22:06:49.480Z,5.00
2022-09-28T22:09:26.141Z,4.90
2022-09-28T22:11:56.839Z,4.90
2022-09-28T22:14:36.565Z,4.90
2022-09-28T22:17:07.623Z,4.90
2022-09-28T22:19:40.237Z,4.90
2022-09-28T22:22:17.753Z,4.90
2022-09-28T22:25:04.618Z,4.90
2022-09-28T22:27:35.742Z,4.90
2022-09-28T22:30:10.534Z,4.90
2022-09-28T22:32:42.270Z,4.90
2022-09-28T22:35:18.924Z,4.90
2022-09-28T22:37:59.694Z,4.90
2022-09-28T22:40:28.763Z,4.90
2022-09-28T22:43:02.736Z,4.90
2022-09-28T22:45:37.024Z,5.00
2022-09-28T22:48:13.127Z,5.00
2022-09-28T22:50:54.142Z,5.00
2022-09-28T22:53:27.161Z,5.00
2022-09-28T22:56:05.485Z,5.10
2022-09-28T22:58:50.271Z,5.10
2022-09-28T23:01:26.572Z,5.10
2022-09-28T23:04:28.778Z,5.20
2022-09-28T23:07:00.351Z,5.20
2022-09-28T23:09:32.806Z,5.20
2022-09-28T23:12:08.974Z,5.30
2022-09-28T23:14:44.486Z,5.30
2022-09-28T23:17:16.744Z,5.40
2022-09-28T23:19:55.095Z,5.40
2022-09-28T23:22:26.660Z,5.40
2022-09-28T23:25:01.722Z,5.50
2022-09-28T23:27:32.675Z,5.60
2022-09-28T23:30:10.011Z,5.70
2022-09-28T23:32:40.038Z,5.70
2022-09-28T23:35:22.644Z,5.80
2022-09-28T23:38:01.878Z,5.90
2022-09-28T23:40:40.743Z,5.90
2022-09-28T23:43:14.153Z,6.00
2022-09-28T23:45:51.903Z,6.10
2022-09-28T23:48:26.281Z,6.10
2022-09-28T23:50:59.312Z,6.20
2022-09-28T23:53:36.303Z,6.20
2022-09-28T23:56:13.887Z,6.20
2022-09-28T23:58:51.742Z,6.20
